MPDA/DAV METAR and TAF weather

Enter ICAO airport designator
Station Type Date Time Source
MPDA METAR 2021/07/30 01:00 UTC NOAA

MPDA 300100Z 26003KT 9999 FEW018TCU 27/25 Q1009


Station Type Date Time Source
MPDA Decoded METAR 2021/07/30 01:00 UTC NOAA

David, Panama (MPDA) 08-24N 082-25W 26M
Jul 29, 2021 - 09:00 PM EDT / 2021.07.30 0100 UTC
Wind: from the W (260 degrees) at 3 MPH (3 KT):0
Visibility: greater than 7 mile(s):0
Sky conditions: mostly clear
Weather: Towering cumulus clouds observed
Temperature: 80 F (27 C)
Dew Point: 77 F (25 C)
Relative Humidity: 88%
Pressure (altimeter): 29.80 in. Hg (1009 hPa)
ob: MPDA 300100Z 26003KT 9999 FEW018TCU 27/25 Q1009
cycle: 1

Station Type Date Time Source
MPDA TAF 2021/07/30 00:54 UTC NOAA

TAF
AMD TAF
AMD MPDA 300100Z 3000/3012 CNL

Example: see airport list